Time,TemperatureF,DewpointF,PressureIn,WindDirection,WindDirectionDegrees,WindSpeedMPH,WindSpeedGustMPH,Humidity,HourlyPrecipIn,Conditions,Clouds,dailyrainin,SolarRadiationWatts/m^2,SoftwareType,DateUTC
2013-03-03 03:00:00,28.0,15.0,29.97,West,269,2.0,-999.0,56,-99.99,,,-99.99,0.010000,,2013-03-03 08:00:00,
2013-03-03 03:54:00,28.0,15.0,29.97,West,269,2.0,-999.0,56,-99.99,,,-99.99,0.010000,,2013-03-03 08:54:00,
2013-03-03 04:00:00,28.0,15.0,29.97,WNW,286,2.0,-999.0,56,-99.99,,,-99.99,0.020000,,2013-03-03 09:00:00,
2013-03-03 04:52:00,28.0,15.0,29.97,WNW,286,2.0,-999.0,56,-99.99,,,-99.99,0.020000,,2013-03-03 09:52:00,
2013-03-03 05:00:00,28.0,14.0,29.97,West,260,2.0,-999.0,56,-99.99,,,-99.99,0.020000,,2013-03-03 10:00:00,
2013-03-03 05:52:00,28.0,14.0,29.97,West,260,2.0,-999.0,56,-99.99,,,-99.99,0.020000,,2013-03-03 10:52:00,
2013-03-03 06:00:00,28.0,14.0,29.97,West,262,2.0,-999.0,55,-99.99,,,-99.99,0.020000,,2013-03-03 11:00:00,
2013-03-03 06:53:00,28.0,14.0,29.97,West,262,2.0,-999.0,55,-99.99,,,-99.99,0.020000,,2013-03-03 11:53:00,
2013-03-03 07:00:00,27.0,14.0,29.98,WNW,299,1.0,-999.0,56,-99.99,,,-99.99,2.080000,,2013-03-03 12:00:00,
2013-03-03 07:53:00,27.0,14.0,29.98,WNW,299,1.0,-999.0,56,-99.99,,,-99.99,2.080000,,2013-03-03 12:53:00,
2013-03-03 08:00:00,30.0,15.0,30.00,West,268,2.0,-999.0,52,-99.99,,,-99.99,93.699997,,2013-03-03 13:00:00,
2013-03-03 08:52:00,30.0,15.0,30.00,West,268,2.0,-999.0,52,-99.99,,,-99.99,93.699997,,2013-03-03 13:52:00,
2013-03-03 09:00:00,33.0,16.0,30.00,West,276,2.0,-999.0,49,-99.99,,,-99.99,272.399994,,2013-03-03 14:00:00,
2013-03-03 09:52:00,33.0,16.0,30.00,West,276,2.0,-999.0,49,-99.99,,,-99.99,272.399994,,2013-03-03 14:52:00,
2013-03-03 10:00:00,35.0,17.0,30.01,North,1,2.0,-999.0,47,-99.99,,,-99.99,430.700012,,2013-03-03 15:00:00,
2013-03-03 10:52:00,35.0,17.0,30.01,North,1,2.0,-999.0,47,-99.99,,,-99.99,430.700012,,2013-03-03 15:52:00,
2013-03-03 11:00:00,38.0,20.0,30.00,NNE,16,2.0,-999.0,48,-99.99,,,-99.99,638.599976,,2013-03-03 16:00:00,
2013-03-03 11:52:00,38.0,20.0,30.00,NNE,16,2.0,-999.0,48,-99.99,,,-99.99,638.599976,,2013-03-03 16:52:00,
2013-03-03 12:00:00,36.0,18.0,30.00,North,350,2.0,-999.0,48,-99.99,,,-99.99,569.799988,,2013-03-03 17:00:00,
2013-03-03 12:52:00,36.0,18.0,30.00,North,350,2.0,-999.0,48,-99.99,,,-99.99,569.799988,,2013-03-03 17:52:00,
2013-03-03 13:00:00,39.0,18.0,29.98,NE,37,2.0,-999.0,41,-99.99,,,-99.99,679.400024,,2013-03-03 18:00:00,
2013-03-03 13:53:00,39.0,18.0,29.98,NE,37,2.0,-999.0,41,-99.99,,,-99.99,679.400024,,2013-03-03 18:53:00,
2013-03-03 14:00:00,39.0,19.0,29.97,NNE,27,2.0,-999.0,45,-99.99,,,-99.99,621.700012,,2013-03-03 19:00:00,
2013-03-03 14:52:00,39.0,19.0,29.97,NNE,27,2.0,-999.0,45,-99.99,,,-99.99,621.700012,,2013-03-03 19:52:00,
2013-03-03 15:00:00,36.0,16.0,29.97,WNW,287,2.0,-999.0,43,-99.99,,,-99.99,504.100006,,2013-03-03 20:00:00,
2013-03-03 15:53:00,36.0,16.0,29.97,WNW,287,2.0,-999.0,43,-99.99,,,-99.99,504.100006,,2013-03-03 20:53:00,
2013-03-03 16:00:00,38.0,16.0,29.97,NNE,24,2.0,-999.0,41,-99.99,,,-99.99,454.700012,,2013-03-03 21:00:00,
2013-03-03 16:52:00,38.0,16.0,29.97,NNE,24,2.0,-999.0,41,-99.99,,,-99.99,454.700012,,2013-03-03 21:52:00,
2013-03-03 17:00:00,36.0,15.0,29.98,NNW,333,2.0,-999.0,42,-99.99,,,-99.99,254.899994,,2013-03-03 22:00:00,
2013-03-03 17:53:00,36.0,15.0,29.98,NNW,333,2.0,-999.0,42,-99.99,,,-99.99,254.899994,,2013-03-03 22:53:00,
2013-03-03 18:00:00,33.0,15.0,30.00,WNW,303,2.0,-999.0,47,-99.99,,,-99.99,66.320000,,2013-03-03 23:00:00,
2013-03-03 18:52:00,33.0,15.0,30.00,WNW,303,2.0,-999.0,47,-99.99,,,-99.99,66.320000,,2013-03-03 23:52:00,
2013-03-03 19:00:00,32.0,15.0,30.01,West,277,2.0,-999.0,48,-99.99,,,-99.99,3.580000,,2013-03-04 00:00:00,
2013-03-03 19:52:00,32.0,15.0,30.01,West,277,2.0,-999.0,48,-99.99,,,-99.99,3.580000,,2013-03-04 00:52:00,
2013-03-03 20:00:00,31.0,13.0,30.03,West,268,2.0,-999.0,47,-99.99,,,-99.99,0.030000,,2013-03-04 01:00:00,
2013-03-03 20:52:00,31.0,13.0,30.03,West,268,2.0,-999.0,47,-99.99,,,-99.99,0.030000,,2013-03-04 01:52:00,
2013-03-03 21:00:00,30.0,13.0,30.03,West,274,2.0,-999.0,49,-99.99,,,-99.99,0.020000,,2013-03-04 02:00:00,
2013-03-03 21:53:00,30.0,13.0,30.03,West,274,2.0,-999.0,49,-99.99,,,-99.99,0.020000,,2013-03-04 02:53:00,
2013-03-03 22:00:00,30.0,13.0,30.05,West,278,2.0,-999.0,49,-99.99,,,-99.99,0.030000,,2013-03-04 03:00:00,
2013-03-03 22:53:00,30.0,13.0,30.05,West,278,2.0,-999.0,49,-99.99,,,-99.99,0.030000,,2013-03-04 03:53:00,
2013-03-03 23:00:00,29.0,11.0,30.05,West,276,2.0,-999.0,47,-99.99,,,-99.99,0.020000,,2013-03-04 04:00:00,
2013-03-03 23:52:00,29.0,11.0,30.05,West,276,2.0,-999.0,47,-99.99,,,-99.99,0.020000,,2013-03-04 04:52:00,